Time;durP1;ratioP1;P1;durP2;ratioP2;P2;SDS_P1;SDS_P2;PMS_P1;PMS_P2;Temp;Humidity;BMP_temperature;BMP_pressure;BME280_temperature;BME280_humidity;BME280_pressure;Samples;Min_cycle;Max_cycle;Signal;HPM_P1;HPM_P2
2021/06/13 00:02:05;;;;;;;;;;;;;;;;;;5099307;28;19912;-86
2021/06/13 00:04:31;;;;;;;;;;;;;;;;;;5103036;28;19908;-85
2021/06/13 00:06:57;;;;;;;;;;;;;;;;;;5093933;28;20429;-86
2021/06/13 00:09:23;;;;;;;;;;;;;;;;;;5099599;28;20269;-86
2021/06/13 00:11:48;;;;;;;;;;;;;;;;;;5099295;28;19908;-86
2021/06/13 00:14:14;;;;;;;;;;;;;;;;;;5097654;28;19923;-85
2021/06/13 00:16:40;;;;;;;;;;;;;;;;;;5084703;28;20024;-85
2021/06/13 00:19:06;;;;;;;;;;;;;;;;;;5095345;28;20434;-86
2021/06/13 00:21:32;;;;;;;;;;;;;;;;;;5097997;28;20383;-86
2021/06/13 00:23:58;;;;;;;;;;;;;;;;;;5096951;28;19908;-86
2021/06/13 00:26:24;;;;;;;;;;;;;;;;;;5096550;28;19938;-86
2021/06/13 00:28:50;;;;;;;;;;;;;;;;;;5104716;28;19994;-85
2021/06/13 00:31:15;;;;;;;;;;;;;;;;;;5095316;28;20360;-85
2021/06/13 00:33:41;;;;;;;;;;;;;;;;;;5092806;28;19913;-86
2021/06/13 00:36:07;;;;;;;;;;;;;;;;;;5091392;28;20506;-85
2021/06/13 00:38:33;;;;;;;;;;;;;;;;;;5092422;28;19962;-86
2021/06/13 00:40:59;;;;;;;;;;;;;;;;;;5096565;28;19920;-85
2021/06/13 00:43:25;;;;;;;;;;;;;;;;;;5097448;28;19912;-85
2021/06/13 00:45:51;;;;;;;;;;;;;;;;;;5097677;28;19914;-85
2021/06/13 00:48:17;;;;;;;;;;;;;;;;;;5096591;28;19923;-86
2021/06/13 00:50:43;;;;;;;;;;;;;;;;;;5101682;28;20272;-86
2021/06/13 00:53:09;;;;;;;;;;;;;;;;;;5096159;28;19916;-86
2021/06/13 00:55:36;;;;;;;;;;;;;;;;;;5102288;28;19913;-85
2021/06/13 00:58:02;;;;;;;;;;;;;;;;;;5101594;28;19977;-85
2021/06/13 01:00:28;;;;;;;;;;;;;;;;;;5096886;28;19993;-85
2021/06/13 01:02:54;;;;;;;;;;;;;;;;;;5100467;28;19937;-85
2021/06/13 01:05:19;;;;;;;;;;;;;;;;;;5081915;28;19912;-86
2021/06/13 01:07:45;;;;;;;;;;;;;;;;;;5098046;28;19912;-85
2021/06/13 01:10:11;;;;;;;;;;;;;;;;;;5102014;28;19908;-85
2021/06/13 01:12:37;;;;;;;;;;;;;;;;;;5096969;28;19984;-85
2021/06/13 01:15:03;;;;;;;;;;;;;;;;;;5091443;28;19912;-85
2021/06/13 01:17:29;;;;;;;;;;;;;;;;;;5094976;28;19919;-85
2021/06/13 01:19:55;;;;;;;;;;;;;;;;;;5102426;28;19915;-86
2021/06/13 01:22:21;;;;;;;;;;;;;;;;;;5096070;28;19956;-85
2021/06/13 01:24:47;;;;;;;;;;;;;;;;;;5091253;28;20095;-85
2021/06/13 01:27:12;;;;;;;;;;;;;;;;;;5099338;28;19919;-85
2021/06/13 01:29:38;;;;;;;;;;;;;;;;;;5093156;28;19919;-85
2021/06/13 01:32:04;;;;;;;;;;;;;;;;;;5098400;28;19908;-85
2021/06/13 01:34:30;;;;;;;;;;;;;;;;;;5090658;28;19912;-85
2021/06/13 01:36:56;;;;;;;;;;;;;;;;;;5096024;28;19962;-85
2021/06/13 01:39:25;;;;;;;;;;;;;;;;;;5092018;28;19912;-85
2021/06/13 01:41:51;;;;;;;;;;;;;;;;;;5096486;28;20019;-85
2021/06/13 01:44:17;;;;;;;;;;;;;;;;;;5100573;28;19948;-86
2021/06/13 01:46:43;;;;;;;;;;;;;;;;;;5098467;28;20435;-86
2021/06/13 01:49:11;;;;;;;;;;;;;;;;;;5096767;28;19937;-86
2021/06/13 01:51:37;;;;;;;;;;;;;;;;;;5092165;28;19912;-86
2021/06/13 01:54:02;;;;;;;;;;;;;;;;;;5092715;28;19916;-85
2021/06/13 01:56:28;;;;;;;;;;;;;;;;;;5098483;28;20276;-85
2021/06/13 01:58:54;;;;;;;;;;;;;;;;;;5102360;28;19928;-85
2021/06/13 02:01:20;;;;;;;;;;;;;;;;;;5101018;28;19920;-86
2021/06/13 02:03:46;;;;;;;;;;;;;;;;;;5087872;28;19912;-86
2021/06/13 02:06:12;;;;;;;;;;;;;;;;;;5102077;28;19916;-85
2021/06/13 02:08:38;;;;;;;;;;;;;;;;;;5102545;28;19956;-85
2021/06/13 02:11:04;;;;;;;;;;;;;;;;;;5096589;28;20375;-85
2021/06/13 02:13:29;;;;;;;;;;;;;;;;;;5091968;28;19908;-86
2021/06/13 02:15:55;;;;;;;;;;;;;;;;;;5093395;28;19912;-86
2021/06/13 02:18:21;;;;;;;;;;;;;;;;;;5098596;28;19915;-85
2021/06/13 02:20:47;;;;;;;;;;;;;;;;;;5100641;28;19924;-85
2021/06/13 02:23:13;;;;;;;;;;;;;;;;;;5095914;28;19975;-86
2021/06/13 02:25:39;;;;;;;;;;;;;;;;;;5092342;28;20285;-86
2021/06/13 02:28:05;;;;;;;;;;;;;;;;;;5090232;28;19988;-85
2021/06/13 02:30:31;;;;;;;;;;;;;;;;;;5100472;28;20349;-86
2021/06/13 02:32:56;;;;;;;;;;;;;;;;;;5095970;28;20300;-85
2021/06/13 02:35:22;;;;;;;;;;;;;;;;;;5103610;28;19908;-86
2021/06/13 02:37:48;;;;;;;;;;;;;;;;;;5097680;28;20326;-86
2021/06/13 02:40:14;;;;;;;;;;;;;;;;;;5089961;28;20425;-86
2021/06/13 02:42:40;;;;;;;;;;;;;;;;;;5093315;28;19941;-86
2021/06/13 02:45:06;;;;;;;;;;;;;;;;;;5084735;28;19991;-85
2021/06/13 02:47:32;;;;;;;;;;;;;;;;;;5090005;28;20280;-86
2021/06/13 02:49:57;;;;;;;;;;;;;;;;;;5099511;28;19908;-86
2021/06/13 02:52:23;;;;;;;;;;;;;;;;;;5094196;28;19971;-85
2021/06/13 02:54:49;;;;;;;;;;;;;;;;;;5094311;28;19919;-86
2021/06/13 02:57:15;;;;;;;;;;;;;;;;;;5090220;28;19919;-86
2021/06/13 02:59:41;;;;;;;;;;;;;;;;;;5096752;28;19920;-85
2021/06/13 03:02:07;;;;;;;;;;;;;;;;;;5099727;28;19927;-86
2021/06/13 03:04:33;;;;;;;;;;;;;;;;;;5096334;28;19957;-86
2021/06/13 03:06:59;;;;;;;;;;;;;;;;;;5096068;28;19912;-84
2021/06/13 03:09:25;;;;;;;;;;;;;;;;;;5095892;28;19947;-85
2021/06/13 03:11:50;;;;;;;;;;;;;;;;;;5095519;28;19912;-86
2021/06/13 03:14:16;;;;;;;;;;;;;;;;;;5086235;28;19983;-86
2021/06/13 03:16:42;;;;;;;;;;;;;;;;;;5096133;28;20011;-85
2021/06/13 03:19:08;;;;;;;;;;;;;;;;;;5092362;28;19918;-86
2021/06/13 03:21:34;;;;;;;;;;;;;;;;;;5101005;28;19924;-86
2021/06/13 03:24:00;;;;;;;;;;;;;;;;;;5095499;28;19919;-86
2021/06/13 03:26:26;;;;;;;;;;;;;;;;;;5097574;28;19928;-86
2021/06/13 03:28:54;;;;;;;;;;;;;;;;;;5096025;28;19999;-86
2021/06/13 03:31:20;;;;;;;;;;;;;;;;;;5095417;28;19918;-85
2021/06/13 03:33:46;;;;;;;;;;;;;;;;;;5089298;28;19913;-86
2021/06/13 03:36:12;;;;;;;;;;;;;;;;;;5080238;28;19919;-86
2021/06/13 03:38:37;;;;;;;;;;;;;;;;;;5092179;28;19916;-85
2021/06/13 03:41:03;;;;;;;;;;;;;;;;;;5100760;28;19920;-86
2021/06/13 03:43:29;;;;;;;;;;;;;;;;;;5092177;28;20330;-85
2021/06/13 03:45:55;;;;;;;;;;;;;;;;;;5092554;28;19912;-86
2021/06/13 03:48:21;;;;;;;;;;;;;;;;;;5091353;28;19912;-85
2021/06/13 03:50:47;;;;;;;;;;;;;;;;;;5094078;28;19950;-85
2021/06/13 03:53:13;;;;;;;;;;;;;;;;;;5091348;28;19931;-86
2021/06/13 03:55:39;;;;;;;;;;;;;;;;;;5125285;28;20455;-86
2021/06/13 03:58:04;;;;;;;;;;;;;;;;;;5097956;28;19915;-86
2021/06/13 04:00:30;;;;;;;;;;;;;;;;;;5099475;28;19928;-85
2021/06/13 04:02:56;;;;;;;;;;;;;;;;;;5091992;28;19912;-85
2021/06/13 04:05:22;;;;;;;;;;;;;;;;;;5077766;28;20007;-86
2021/06/13 04:07:48;;;;;;;;;;;;;;;;;;5090692;28;19908;-86
2021/06/13 04:10:14;;;;;;;;;;;;;;;;;;5091615;28;19919;-86
2021/06/13 04:12:40;;;;;;;;;;;;;;;;;;5090493;28;19991;-85
2021/06/13 04:15:06;;;;;;;;;;;;;;;;;;5084570;28;19912;-85
2021/06/13 04:17:32;;;;;;;;;;;;;;;;;;5094476;28;19919;-85
2021/06/13 04:19:58;;;;;;;;;;;;;;;;;;5091732;28;19940;-86
2021/06/13 04:22:23;;;;;;;;;;;;;;;;;;5094085;28;19909;-85
2021/06/13 04:24:49;;;;;;;;;;;;;;;;;;5093184;28;19938;-85
2021/06/13 04:27:15;;;;;;;;;;;;;;;;;;5100568;28;19955;-86
2021/06/13 04:29:41;;;;;;;;;;;;;;;;;;5101046;28;19923;-85
2021/06/13 04:32:07;;;;;;;;;;;;;;;;;;5101627;28;19908;-86
2021/06/13 04:34:33;;;;;;;;;;;;;;;;;;5082497;28;19916;-85
2021/06/13 04:36:59;;;;;;;;;;;;;;;;;;5095458;28;20303;-86
2021/06/13 04:39:25;;;;;;;;;;;;;;;;;;5094241;28;19999;-86
2021/06/13 04:41:50;;;;;;;;;;;;;;;;;;5094479;28;19920;-85
2021/06/13 04:44:16;;;;;;;;;;;;;;;;;;5093084;28;19912;-85
2021/06/13 04:46:42;;;;;;;;;;;;;;;;;;5080997;28;20284;-86
2021/06/13 04:49:08;;;;;;;;;;;;;;;;;;5094832;28;19923;-86
2021/06/13 04:51:34;;;;;;;;;;;;;;;;;;5094199;28;19957;-86
2021/06/13 04:54:02;;;;;;;;;;;;;;;;;;5097343;28;19908;-86
2021/06/13 04:56:28;;;;;;;;;;;;;;;;;;5099987;28;19956;-86
2021/06/13 04:58:54;;;;;;;;;;;;;;;;;;5099789;28;19918;-85
2021/06/13 05:01:19;;;;;;;;;;;;;;;;;;5098072;28;19920;-86
2021/06/13 05:03:45;;;;;;;;;;;;;;;;;;5095750;28;20033;-86
2021/06/13 05:06:11;;;;;;;;;;;;;;;;;;5086978;28;19909;-86
2021/06/13 05:08:37;;;;;;;;;;;;;;;;;;5098218;28;19962;-86
2021/06/13 05:11:03;;;;;;;;;;;;;;;;;;5099745;28;19908;-86
2021/06/13 05:13:29;;;;;;;;;;;;;;;;;;5099623;28;19908;-86
2021/06/13 05:15:55;;;;;;;;;;;;;;;;;;5092556;28;19912;-86
2021/06/13 05:18:21;;;;;;;;;;;;;;;;;;5091842;28;20421;-86
2021/06/13 05:20:52;;;;;;;;;;;;;;;;;;5092853;28;19927;-85
2021/06/13 05:23:18;;;;;;;;;;;;;;;;;;5093347;28;19921;-86
2021/06/13 05:25:44;;;;;;;;;;;;;;;;;;5094835;28;19908;-86
2021/06/13 05:28:10;;;;;;;;;;;;;;;;;;5092456;28;19965;-85
2021/06/13 05:30:36;;;;;;;;;;;;;;;;;;5098343;28;20344;-85
2021/06/13 05:33:02;;;;;;;;;;;;;;;;;;5094007;28;20488;-86
2021/06/13 05:35:27;;;;;;;;;;;;;;;;;;5078210;28;19966;-86
2021/06/13 05:37:53;;;;;;;;;;;;;;;;;;5094363;28;19918;-86
2021/06/13 05:40:19;;;;;;;;;;;;;;;;;;5092009;28;20002;-86
2021/06/13 05:42:45;;;;;;;;;;;;;;;;;;5094192;28;19912;-86
2021/06/13 05:45:11;;;;;;;;;;;;;;;;;;5093070;28;19912;-87
2021/06/13 05:47:37;;;;;;;;;;;;;;;;;;5092153;28;19939;-87
2021/06/13 05:50:03;;;;;;;;;;;;;;;;;;5093615;28;20444;-87
2021/06/13 05:52:29;;;;;;;;;;;;;;;;;;5096617;28;19944;-87
2021/06/13 05:54:57;;;;;;;;;;;;;;;;;;5094552;28;19912;-87
2021/06/13 05:57:23;;;;;;;;;;;;;;;;;;5096181;28;19908;-87
2021/06/13 05:59:49;;;;;;;;;;;;;;;;;;5092465;28;19920;-87
2021/06/13 06:02:15;;;;;;;;;;;;;;;;;;5100070;28;19956;-86
2021/06/13 06:04:40;;;;;;;;;;;;;;;;;;5099379;28;19919;-86
2021/06/13 06:07:06;;;;;;;;;;;;;;;;;;5096183;28;20527;-87
2021/06/13 06:09:32;;;;;;;;;;;;;;;;;;5097947;28;19912;-87
2021/06/13 06:11:58;;;;;;;;;;;;;;;;;;5101022;28;19939;-86
2021/06/13 06:14:24;;;;;;;;;;;;;;;;;;5088017;28;19970;-87
2021/06/13 06:16:50;;;;;;;;;;;;;;;;;;5093398;28;19916;-87
2021/06/13 06:19:16;;;;;;;;;;;;;;;;;;5088566;28;19960;-87
2021/06/13 06:21:41;;;;;;;;;;;;;;;;;;5094274;28;19920;-87
2021/06/13 06:24:07;;;;;;;;;;;;;;;;;;5075215;28;20414;-87
2021/06/13 06:26:33;;;;;;;;;;;;;;;;;;5091369;28;20006;-88
2021/06/13 06:28:59;;;;;;;;;;;;;;;;;;5098694;28;19908;-88
2021/06/13 06:31:25;;;;;;;;;;;;;;;;;;5112802;28;19961;-86
2021/06/13 06:33:51;;;;;;;;;;;;;;;;;;5102857;28;19912;-88
2021/06/13 06:36:17;;;;;;;;;;;;;;;;;;5097337;28;20021;-88
2021/06/13 06:38:43;;;;;;;;;;;;;;;;;;5100977;28;19920;-85
2021/06/13 06:41:08;;;;;;;;;;;;;;;;;;5103923;28;19924;-87
2021/06/13 06:43:34;;;;;;;;;;;;;;;;;;5103595;28;19909;-88
2021/06/13 06:46:00;;;;;;;;;;;;;;;;;;5081361;28;20279;-88
2021/06/13 06:48:26;;;;;;;;;;;;;;;;;;5080653;28;19916;-88
2021/06/13 06:50:52;;;;;;;;;;;;;;;;;;5100306;28;19913;-89
2021/06/13 06:53:18;;;;;;;;;;;;;;;;;;5093154;28;19920;-86
2021/06/13 06:55:44;;;;;;;;;;;;;;;;;;5100520;28;19975;-88
2021/06/13 06:58:09;;;;;;;;;;;;;;;;;;5099889;28;19919;-86
2021/06/13 07:00:35;;;;;;;;;;;;;;;;;;5092224;28;19994;-87
2021/06/13 07:03:01;;;;;;;;;;;;;;;;;;5100030;28;19912;-87
2021/06/13 07:05:27;;;;;;;;;;;;;;;;;;5094573;28;20364;-88
2021/06/13 07:07:53;;;;;;;;;;;;;;;;;;5098767;28;19924;-86
2021/06/13 07:10:19;;;;;;;;;;;;;;;;;;5083236;28;19912;-88
2021/06/13 07:12:45;;;;;;;;;;;;;;;;;;5106431;28;20010;-87
2021/06/13 07:15:11;;;;;;;;;;;;;;;;;;5088251;28;19913;-86
2021/06/13 07:17:37;;;;;;;;;;;;;;;;;;5094480;28;19913;-88
2021/06/13 07:20:03;;;;;;;;;;;;;;;;;;5096498;28;19918;-88
2021/06/13 07:22:29;;;;;;;;;;;;;;;;;;5091529;28;19912;-88
2021/06/13 07:24:56;;;;;;;;;;;;;;;;;;5098007;28;19912;-88
2021/06/13 07:27:22;;;;;;;;;;;;;;;;;;5095471;28;19919;-88
2021/06/13 07:29:48;;;;;;;;;;;;;;;;;;5096681;28;19912;-88
2021/06/13 07:32:14;;;;;;;;;;;;;;;;;;5098053;28;20420;-87
2021/06/13 07:34:40;;;;;;;;;;;;;;;;;;5098117;28;19995;-89
2021/06/13 07:37:07;;;;;;;;;;;;;;;;;;5099624;28;19923;-89
2021/06/13 07:39:32;;;;;;;;;;;;;;;;;;5099326;28;19912;-89
2021/06/13 07:41:58;;;;;;;;;;;;;;;;;;5098747;28;19922;-88
2021/06/13 07:44:25;;;;;;;;;;;;;;;;;;5098516;28;19915;-89
2021/06/13 07:46:51;;;;;;;;;;;;;;;;;;5097321;28;19958;-89
2021/06/13 07:49:16;;;;;;;;;;;;;;;;;;5099665;28;20329;-89
2021/06/13 07:51:42;;;;;;;;;;;;;;;;;;5096274;28;20005;-86
2021/06/13 07:54:08;;;;;;;;;;;;;;;;;;5097136;28;20443;-88
2021/06/13 07:56:34;;;;;;;;;;;;;;;;;;5094837;28;20009;-88
2021/06/13 07:59:00;;;;;;;;;;;;;;;;;;5099715;28;19967;-87
2021/06/13 08:01:26;;;;;;;;;;;;;;;;;;5109140;28;19924;-88
2021/06/13 08:03:53;;;;;;;;;;;;;;;;;;5094239;28;19912;-88
2021/06/13 08:06:19;;;;;;;;;;;;;;;;;;5098372;28;19942;-88
2021/06/13 08:08:46;;;;;;;;;;;;;;;;;;5101193;28;19912;-88
2021/06/13 08:11:11;;;;;;;;;;;;;;;;;;5101650;28;19917;-88
2021/06/13 08:13:37;;;;;;;;;;;;;;;;;;5099563;28;19939;-86
2021/06/13 08:16:03;;;;;;;;;;;;;;;;;;5095740;28;20024;-85
2021/06/13 08:18:29;;;;;;;;;;;;;;;;;;5108449;28;19918;-87
2021/06/13 08:20:55;;;;;;;;;;;;;;;;;;5102095;28;19944;-86
2021/06/13 08:23:21;;;;;;;;;;;;;;;;;;5097266;28;19916;-86
2021/06/13 08:25:47;;;;;;;;;;;;;;;;;;5099382;28;19916;-86
2021/06/13 08:28:13;;;;;;;;;;;;;;;;;;5097098;28;19951;-86
2021/06/13 08:30:39;;;;;;;;;;;;;;;;;;5094073;28;19912;-86
2021/06/13 08:33:05;;;;;;;;;;;;;;;;;;5096613;28;19912;-86
2021/06/13 08:35:31;;;;;;;;;;;;;;;;;;5093715;28;20364;-86
2021/06/13 08:37:59;;;;;;;;;;;;;;;;;;5095544;28;20356;-86
2021/06/13 08:40:25;;;;;;;;;;;;;;;;;;5097984;28;19979;-85
2021/06/13 08:42:51;;;;;;;;;;;;;;;;;;5093275;28;19955;-86
2021/06/13 08:45:16;;;;;;;;;;;;;;;;;;5102023;28;19912;-86
2021/06/13 08:47:42;;;;;;;;;;;;;;;;;;5099631;28;20383;-85
2021/06/13 08:50:08;;;;;;;;;;;;;;;;;;5100784;28;19908;-86
2021/06/13 08:52:34;;;;;;;;;;;;;;;;;;5098624;28;19913;-86
2021/06/13 08:55:00;;;;;;;;;;;;;;;;;;5100250;28;19999;-87
2021/06/13 08:57:26;;;;;;;;;;;;;;;;;;5100703;28;20386;-86
2021/06/13 08:59:52;;;;;;;;;;;;;;;;;;5103328;28;19926;-87
2021/06/13 09:02:18;;;;;;;;;;;;;;;;;;5101808;28;20300;-86
2021/06/13 09:04:43;;;;;;;;;;;;;;;;;;5101896;28;19912;-87
2021/06/13 09:07:09;;;;;;;;;;;;;;;;;;5094381;28;19951;-87
2021/06/13 09:09:35;;;;;;;;;;;;;;;;;;5098826;28;20127;-87
2021/06/13 09:12:01;;;;;;;;;;;;;;;;;;5091396;28;19919;-87
2021/06/13 09:14:27;;;;;;;;;;;;;;;;;;5091787;28;19920;-87
2021/06/13 09:16:53;;;;;;;;;;;;;;;;;;5097136;28;20107;-87
2021/06/13 09:19:19;;;;;;;;;;;;;;;;;;5092752;28;20666;-87
2021/06/13 09:21:46;;;;;;;;;;;;;;;;;;5091800;28;19920;-86
2021/06/13 09:24:12;;;;;;;;;;;;;;;;;;5096451;28;19923;-87
2021/06/13 09:26:38;;;;;;;;;;;;;;;;;;5095070;28;20360;-87
2021/06/13 09:29:03;;;;;;;;;;;;;;;;;;5096738;28;19908;-86
2021/06/13 09:31:29;;;;;;;;;;;;;;;;;;5095087;28;19908;-86
2021/06/13 09:33:55;;;;;;;;;;;;;;;;;;5088409;28;19916;-86
2021/06/13 09:36:22;;;;;;;;;;;;;;;;;;5092120;28;19912;-86
2021/06/13 09:38:48;;;;;;;;;;;;;;;;;;5090859;28;19997;-86
2021/06/13 09:41:15;;;;;;;;;;;;;;;;;;5094879;28;20261;-86
2021/06/13 09:43:41;;;;;;;;;;;;;;;;;;5101505;28;19980;-86
2021/06/13 09:46:07;;;;;;;;;;;;;;;;;;5095193;28;19920;-85
2021/06/13 09:48:33;;;;;;;;;;;;;;;;;;5096049;28;19920;-86
2021/06/13 09:50:59;;;;;;;;;;;;;;;;;;5091676;28;19912;-86
2021/06/13 09:53:25;;;;;;;;;;;;;;;;;;5091407;28;20367;-86
2021/06/13 09:55:51;;;;;;;;;;;;;;;;;;5094900;28;19954;-85
2021/06/13 09:58:17;;;;;;;;;;;;;;;;;;5097754;28;19912;-84
2021/06/13 10:00:43;;;;;;;;;;;;;;;;;;5092484;28;19920;-86
2021/06/13 10:03:09;;;;;;;;;;;;;;;;;;5101281;28;19982;-85
2021/06/13 10:05:34;;;;;;;;;;;;;;;;;;5098546;28;19924;-85
2021/06/13 10:08:00;;;;;;;;;;;;;;;;;;5093136;28;19912;-85
2021/06/13 10:10:26;;;;;;;;;;;;;;;;;;5095387;28;19954;-85
2021/06/13 10:12:52;;;;;;;;;;;;;;;;;;5093450;28;20436;-85
2021/06/13 10:15:18;;;;;;;;;;;;;;;;;;5093598;28;19916;-85
2021/06/13 10:17:44;;;;;;;;;;;;;;;;;;5095746;28;19919;-85
2021/06/13 10:20:10;;;;;;;;;;;;;;;;;;5101142;28;19951;-86
2021/06/13 10:22:36;;;;;;;;;;;;;;;;;;5094127;28;19908;-85
2021/06/13 10:25:02;;;;;;;;;;;;;;;;;;5093483;28;19912;-85
2021/06/13 10:27:27;;;;;;;;;;;;;;;;;;5092609;28;19916;-86
2021/06/13 10:29:55;;;;;;;;;;;;;;;;;;5096136;28;20388;-86
2021/06/13 10:32:22;;;;;;;;;;;;;;;;;;5076029;28;20386;-86
2021/06/13 10:34:53;;;;;;;;;;;;;;;;;;5089798;28;19958;-85
2021/06/13 10:37:19;;;;;;;;;;;;;;;;;;5093095;28;20287;-86
2021/06/13 10:39:48;;;;;;;;;;;;;;;;;;5092500;28;19908;-86
2021/06/13 10:42:14;;;;;;;;;;;;;;;;;;5094285;28;19920;-85
2021/06/13 10:44:40;;;;;;;;;;;;;;;;;;5098087;28;19909;-86
2021/06/13 10:47:06;;;;;;;;;;;;;;;;;;5097398;28;19909;-85
2021/06/13 10:49:32;;;;;;;;;;;;;;;;;;5112828;28;19912;-86
2021/06/13 10:51:58;;;;;;;;;;;;;;;;;;5093280;28;19912;-87
2021/06/13 10:54:24;;;;;;;;;;;;;;;;;;5099120;28;19919;-87
2021/06/13 10:56:50;;;;;;;;;;;;;;;;;;5102696;28;19914;-86
2021/06/13 10:59:17;;;;;;;;;;;;;;;;;;5093512;28;20010;-86
2021/06/13 11:01:43;;;;;;;;;;;;;;;;;;5096613;28;19923;-86
2021/06/13 11:04:08;;;;;;;;;;;;;;;;;;5095616;28;19912;-86
2021/06/13 11:06:34;;;;;;;;;;;;;;;;;;5100070;28;19973;-86
2021/06/13 11:09:01;;;;;;;;;;;;;;;;;;5092753;28;19912;-86
2021/06/13 11:11:27;;;;;;;;;;;;;;;;;;5097836;28;20059;-86
2021/06/13 11:13:53;;;;;;;;;;;;;;;;;;5093404;28;20429;-87
2021/06/13 11:16:18;;;;;;;;;;;;;;;;;;5095231;28;20384;-87
2021/06/13 11:18:45;;;;;;;;;;;;;;;;;;5092673;28;20007;-87
2021/06/13 11:21:12;;;;;;;;;;;;;;;;;;5089690;28;19921;-87
2021/06/13 11:23:38;;;;;;;;;;;;;;;;;;5096110;28;19922;-87
2021/06/13 11:26:04;;;;;;;;;;;;;;;;;;5097012;28;19991;-87
2021/06/13 11:28:31;;;;;;;;;;;;;;;;;;5101279;28;19972;-86
2021/06/13 11:30:57;;;;;;;;;;;;;;;;;;5091692;28;19943;-86
2021/06/13 11:33:22;;;;;;;;;;;;;;;;;;5093207;28;19919;-86
2021/06/13 11:35:48;;;;;;;;;;;;;;;;;;5097084;28;19912;-86
2021/06/13 11:38:14;;;;;;;;;;;;;;;;;;5101665;28;20337;-87
2021/06/13 11:40:40;;;;;;;;;;;;;;;;;;5111052;28;19962;-87
2021/06/13 11:43:06;;;;;;;;;;;;;;;;;;5121904;27;20208;-86
2021/06/13 11:45:32;;;;;;;;;;;;;;;;;;5091905;28;19912;-87
2021/06/13 11:47:58;;;;;;;;;;;;;;;;;;5098730;28;19969;-86
2021/06/13 11:50:24;;;;;;;;;;;;;;;;;;5097098;28;19912;-86
2021/06/13 11:52:49;;;;;;;;;;;;;;;;;;5101053;28;19908;-87
2021/06/13 11:55:15;;;;;;;;;;;;;;;;;;5095475;28;20276;-87
2021/06/13 11:57:41;;;;;;;;;;;;;;;;;;5093508;28;19912;-87
2021/06/13 12:00:07;;;;;;;;;;;;;;;;;;5096171;28;19920;-86
2021/06/13 12:02:33;;;;;;;;;;;;;;;;;;5102765;28;20005;-86
2021/06/13 12:04:59;;;;;;;;;;;;;;;;;;5103703;28;20264;-86
2021/06/13 12:07:26;;;;;;;;;;;;;;;;;;5097696;28;19912;-86
2021/06/13 12:09:52;;;;;;;;;;;;;;;;;;5098007;28;19934;-86
2021/06/13 12:12:21;;;;;;;;;;;;;;;;;;5096782;28;19920;-86
2021/06/13 12:14:49;;;;;;;;;;;;;;;;;;5103880;28;19963;-87
2021/06/13 12:17:15;;;;;;;;;;;;;;;;;;5103946;28;19919;-86
2021/06/13 12:19:41;;;;;;;;;;;;;;;;;;5100212;28;19912;-86
2021/06/13 12:22:07;;;;;;;;;;;;;;;;;;5097204;28;19927;-87
2021/06/13 12:24:50;;;;;;;;;;;;;;;;;;5095729;28;19912;-86
2021/06/13 12:27:23;;;;;;;;;;;;;;;;;;5092241;28;19912;-87
2021/06/13 12:29:49;;;;;;;;;;;;;;;;;;5097158;28;20226;-86
2021/06/13 12:32:15;;;;;;;;;;;;;;;;;;5095794;28;19965;-86
2021/06/13 12:34:40;;;;;;;;;;;;;;;;;;5101969;28;19955;-86
2021/06/13 12:37:06;;;;;;;;;;;;;;;;;;5093070;28;20333;-86
2021/06/13 12:39:32;;;;;;;;;;;;;;;;;;5093121;28;20289;-86
2021/06/13 12:41:58;;;;;;;;;;;;;;;;;;5103337;28;19920;-86
2021/06/13 12:44:24;;;;;;;;;;;;;;;;;;5095694;28;19920;-86
2021/06/13 12:46:51;;;;;;;;;;;;;;;;;;5096430;28;19908;-87
2021/06/13 12:49:17;;;;;;;;;;;;;;;;;;5099332;28;20102;-86
2021/06/13 12:51:46;;;;;;;;;;;;;;;;;;5094670;28;20384;-86
2021/06/13 12:54:12;;;;;;;;;;;;;;;;;;5100447;28;19923;-87
2021/06/13 12:56:38;;;;;;;;;;;;;;;;;;5101007;28;20003;-86
2021/06/13 12:59:03;;;;;;;;;;;;;;;;;;5102840;28;19954;-86
2021/06/13 13:01:29;;;;;;;;;;;;;;;;;;5096549;28;20304;-87
2021/06/13 13:03:55;;;;;;;;;;;;;;;;;;5094375;28;19967;-86
2021/06/13 13:06:21;;;;;;;;;;;;;;;;;;5098720;28;19913;-86
2021/06/13 13:08:47;;;;;;;;;;;;;;;;;;5099197;28;19918;-86
2021/06/13 13:11:13;;;;;;;;;;;;;;;;;;5094008;28;20300;-86
2021/06/13 13:13:39;;;;;;;;;;;;;;;;;;5095373;28;20006;-86
2021/06/13 13:16:05;;;;;;;;;;;;;;;;;;5092324;28;19915;-87
2021/06/13 13:18:31;;;;;;;;;;;;;;;;;;5098707;28;19981;-83
2021/06/13 13:20:57;;;;;;;;;;;;;;;;;;5094972;28;20269;-86
2021/06/13 13:23:23;;;;;;;;;;;;;;;;;;5091844;28;19912;-86
2021/06/13 13:25:49;;;;;;;;;;;;;;;;;;5095772;28;19953;-86
2021/06/13 13:28:15;;;;;;;;;;;;;;;;;;5092889;28;19913;-87
2021/06/13 13:30:41;;;;;;;;;;;;;;;;;;5092078;28;19919;-86
2021/06/13 13:33:07;;;;;;;;;;;;;;;;;;5096954;28;20285;-87
2021/06/13 13:35:32;;;;;;;;;;;;;;;;;;5101437;28;19908;-86
2021/06/13 13:37:58;;;;;;;;;;;;;;;;;;5095509;28;19995;-86
2021/06/13 13:40:24;;;;;;;;;;;;;;;;;;5094993;28;20268;-86
2021/06/13 13:42:50;;;;;;;;;;;;;;;;;;5101699;28;19939;-86
2021/06/13 13:45:16;;;;;;;;;;;;;;;;;;5092248;28;20345;-85
2021/06/13 13:47:42;;;;;;;;;;;;;;;;;;5091555;28;19919;-86
2021/06/13 13:50:11;;;;;;;;;;;;;;;;;;5093716;28;20002;-86
2021/06/13 13:52:37;;;;;;;;;;;;;;;;;;5096959;28;20272;-86
2021/06/13 13:55:03;;;;;;;;;;;;;;;;;;5096939;28;19913;-86
2021/06/13 13:57:29;;;;;;;;;;;;;;;;;;5099086;28;19937;-87
2021/06/13 13:59:54;;;;;;;;;;;;;;;;;;5095897;28;19974;-86
2021/06/13 14:02:20;;;;;;;;;;;;;;;;;;5078283;28;19920;-86
2021/06/13 14:04:46;;;;;;;;;;;;;;;;;;5094530;28;19957;-86
2021/06/13 14:07:12;;;;;;;;;;;;;;;;;;5091292;28;20316;-87
2021/06/13 14:09:39;;;;;;;;;;;;;;;;;;5091213;28;19963;-86
2021/06/13 14:12:05;;;;;;;;;;;;;;;;;;5094399;28;20378;-83
2021/06/13 14:14:32;;;;;;;;;;;;;;;;;;5095091;28;19960;-86
2021/06/13 14:16:58;;;;;;;;;;;;;;;;;;5100136;28;19908;-86
2021/06/13 14:19:24;;;;;;;;;;;;;;;;;;5096605;28;19908;-86
2021/06/13 14:21:51;;;;;;;;;;;;;;;;;;5094196;28;20364;-86
2021/06/13 14:24:17;;;;;;;;;;;;;;;;;;5090021;28;19969;-86
2021/06/13 14:26:42;;;;;;;;;;;;;;;;;;5094545;28;19913;-85
2021/06/13 14:29:08;;;;;;;;;;;;;;;;;;5111643;28;19916;-86
2021/06/13 14:31:34;;;;;;;;;;;;;;;;;;5097649;28;19909;-86
2021/06/13 14:34:00;;;;;;;;;;;;;;;;;;5086366;28;19912;-86
2021/06/13 14:36:26;;;;;;;;;;;;;;;;;;5090580;28;19912;-86
2021/06/13 14:38:52;;;;;;;;;;;;;;;;;;5090827;28;19923;-86
2021/06/13 14:41:18;;;;;;;;;;;;;;;;;;5090970;28;19928;-86
2021/06/13 14:43:44;;;;;;;;;;;;;;;;;;5093348;28;20283;-86
2021/06/13 14:46:09;;;;;;;;;;;;;;;;;;5090746;28;19946;-86
2021/06/13 14:48:35;;;;;;;;;;;;;;;;;;5094971;28;19915;-86
2021/06/13 14:51:02;;;;;;;;;;;;;;;;;;5091711;28;19912;-86
2021/06/13 14:53:27;;;;;;;;;;;;;;;;;;5098418;28;20284;-86
2021/06/13 14:55:54;;;;;;;;;;;;;;;;;;5096579;28;19912;-86
2021/06/13 14:58:20;;;;;;;;;;;;;;;;;;5093091;28;19908;-87
2021/06/13 15:00:50;;;;;;;;;;;;;;;;;;5093693;28;19927;-87
2021/06/13 15:03:17;;;;;;;;;;;;;;;;;;5093958;28;20295;-88
2021/06/13 15:05:43;;;;;;;;;;;;;;;;;;5091774;28;20015;-87
2021/06/13 15:08:09;;;;;;;;;;;;;;;;;;5092597;28;19943;-89
2021/06/13 15:10:34;;;;;;;;;;;;;;;;;;5099158;28;19908;-89
2021/06/13 15:13:00;;;;;;;;;;;;;;;;;;5100276;28;19923;-88
2021/06/13 15:15:26;;;;;;;;;;;;;;;;;;5100803;28;19912;-88
2021/06/13 15:17:52;;;;;;;;;;;;;;;;;;5095164;28;19919;-88
2021/06/13 15:20:18;;;;;;;;;;;;;;;;;;5093733;28;19934;-88
2021/06/13 15:22:44;;;;;;;;;;;;;;;;;;5096469;28;20029;-88
2021/06/13 15:25:10;;;;;;;;;;;;;;;;;;5088371;28;19912;-90
2021/06/13 15:27:36;;;;;;;;;;;;;;;;;;5097281;28;19912;-90
2021/06/13 15:30:02;;;;;;;;;;;;;;;;;;5090714;28;19909;-90
2021/06/13 15:32:30;;;;;;;;;;;;;;;;;;5102778;28;19991;-92
2021/06/13 15:34:56;;;;;;;;;;;;;;;;;;5097596;28;19908;-88
2021/06/13 15:37:22;;;;;;;;;;;;;;;;;;5093578;28;19962;-87
2021/06/13 15:39:49;;;;;;;;;;;;;;;;;;5090012;28;19912;-88
2021/06/13 15:42:16;;;;;;;;;;;;;;;;;;5095069;28;20017;-89
2021/06/13 15:44:42;;;;;;;;;;;;;;;;;;5096986;28;19909;-88
2021/06/13 15:47:08;;;;;;;;;;;;;;;;;;5091973;28;19916;-88
2021/06/13 15:49:34;;;;;;;;;;;;;;;;;;5100557;28;19909;-88
2021/06/13 15:52:00;;;;;;;;;;;;;;;;;;5096956;28;19919;-88
2021/06/13 15:54:30;;;;;;;;;;;;;;;;;;5102242;28;19909;-89
2021/06/13 15:56:57;;;;;;;;;;;;;;;;;;5088362;28;19913;-86
2021/06/13 16:02:21;;;;;;;;;;;;;;;;;;5042918;28;19952;-87
2021/06/13 16:04:47;;;;;;;;;;;;;;;;;;5094955;28;19908;-87
2021/06/13 16:07:13;;;;;;;;;;;;;;;;;;5097326;28;19973;-87
2021/06/13 16:09:39;;;;;;;;;;;;;;;;;;5100482;28;19912;-87
2021/06/13 16:12:06;;;;;;;;;;;;;;;;;;5095498;28;19909;-86
2021/06/13 16:14:32;;;;;;;;;;;;;;;;;;5092165;28;20343;-87
2021/06/13 16:16:58;;;;;;;;;;;;;;;;;;5091973;28;19947;-87
2021/06/13 16:19:24;;;;;;;;;;;;;;;;;;5095705;28;19912;-87
2021/06/13 16:21:50;;;;;;;;;;;;;;;;;;5097610;28;19974;-87
2021/06/13 16:24:16;;;;;;;;;;;;;;;;;;5094154;28;19920;-87
2021/06/13 16:26:42;;;;;;;;;;;;;;;;;;5098619;28;19916;-87
2021/06/13 16:29:08;;;;;;;;;;;;;;;;;;5099733;28;20020;-87
2021/06/13 16:31:34;;;;;;;;;;;;;;;;;;5095277;28;20276;-87
2021/06/13 16:33:59;;;;;;;;;;;;;;;;;;5095902;28;19999;-87
2021/06/13 16:36:25;;;;;;;;;;;;;;;;;;5093061;28;19991;-87
2021/06/13 16:38:51;;;;;;;;;;;;;;;;;;5093202;28;19912;-88
2021/06/13 16:41:17;;;;;;;;;;;;;;;;;;5096892;28;19950;-87